Map

Track Data

SID SEASON NUMBER BASIN SUBBASIN NAME ISO_TIME NATURE LAT LON WMO_WIND WMO_PRES WMO_AGENCY TRACK_TYPE DIST2LAND LANDFALL IFLAG USA_AGENCY USA_ATCF_ID USA_LAT USA_LON USA_RECORD USA_STATUS USA_WIND USA_PRES USA_SSHS USA_R34_NE USA_R34_SE USA_R34_SW USA_R34_NW USA_R50_NE USA_R50_SE USA_R50_SW USA_R50_NW USA_R64_NE USA_R64_SE USA_R64_SW USA_R64_NW USA_POCI USA_ROCI USA_RMW USA_EYE TOKYO_LAT TOKYO_LON TOKYO_GRADE TOKYO_WIND TOKYO_PRES TOKYO_R50_DIR TOKYO_R50_LONG TOKYO_R50_SHORT TOKYO_R30_DIR TOKYO_R30_LONG TOKYO_R30_SHORT TOKYO_LAND CMA_LAT CMA_LON CMA_CAT CMA_WIND CMA_PRES HKO_LAT HKO_LON HKO_CAT HKO_WIND HKO_PRES NEWDELHI_LAT NEWDELHI_LON NEWDELHI_GRADE NEWDELHI_WIND NEWDELHI_PRES NEWDELHI_CI NEWDELHI_DP NEWDELHI_POCI REUNION_LAT REUNION_LON REUNION_TYPE REUNION_WIND REUNION_PRES REUNION_TNUM REUNION_CI REUNION_RMW REUNION_R34_NE REUNION_R34_SE REUNION_R34_SW REUNION_R34_NW REUNION_R50_NE REUNION_R50_SE REUNION_R50_SW REUNION_R50_NW REUNION_R64_NE REUNION_R64_SE REUNION_R64_SW REUNION_R64_NW BOM_LAT BOM_LON BOM_TYPE BOM_WIND BOM_PRES BOM_TNUM BOM_CI BOM_RMW BOM_R34_NE BOM_R34_SE BOM_R34_SW BOM_R34_NW BOM_R50_NE BOM_R50_SE BOM_R50_SW BOM_R50_NW BOM_R64_NE BOM_R64_SE BOM_R64_SW BOM_R64_NW BOM_ROCI BOM_POCI BOM_EYE BOM_POS_METHOD BOM_PRES_METHOD NADI_LAT NADI_LON NADI_CAT NADI_WIND NADI_PRES WELLINGTON_LAT WELLINGTON_LON WELLINGTON_WIND WELLINGTON_PRES DS824_LAT DS824_LON DS824_STAGE DS824_WIND DS824_PRES TD9636_LAT TD9636_LON TD9636_STAGE TD9636_WIND TD9636_PRES TD9635_LAT TD9635_LON TD9635_WIND TD9635_PRES TD9635_ROCI NEUMANN_LAT NEUMANN_LON NEUMANN_CLASS NEUMANN_WIND NEUMANN_PRES MLC_LAT MLC_LON MLC_CLASS MLC_WIND MLC_PRES USA_GUST BOM_GUST BOM_GUST_PER REUNION_GUST REUNION_GUST_PER USA_SEAHGT USA_SEARAD_NE USA_SEARAD_SE USA_SEARAD_SW USA_SEARAD_NW STORM_SPEED STORM_DIR
2020019S11063 2020 4 SI MM NOT_NAMED 2020-01-19 06:00:00 NR -10.5000 62.9000 main 1210 1210 O_____________ jtwc_sh SH092020 -10.5000 62.9000 DB 20 1007 -3 1006 195 30 4 79
2020019S11063 2020 4 SI MM NOT_NAMED 2020-01-19 09:00:00 NR -10.4650 63.0800 main 1220 1220 P_____________ SH092020 -10.4650 63.0800 DB 20 1006 -3 1006 195 30 4 90
2020019S11063 2020 4 SI MM NOT_NAMED 2020-01-19 12:00:00 NR -10.5000 63.3000 main 1230 1226 O_____________ jtwc_sh SH092020 -10.5000 63.3000 DB 20 1005 -3 1006 195 30 5 111
2020019S11063 2020 4 SI MM NOT_NAMED 2020-01-19 15:00:00 NR -10.6550 63.5850 main 1227 1219 P_____________ SH092020 -10.6550 63.5850 DB 22 1004 -3 1006 195 30 7 124
2020019S11063 2020 4 SI MM NOT_NAMED 2020-01-19 18:00:00 TS -10.9000 63.9000 main 1225 1218 O_____________ jtwc_sh SH092020 -10.9000 63.9000 TD 25 1004 -1 1006 195 30 8 129
2020019S11063 2020 4 SI MM NOT_NAMED 2020-01-19 21:00:00 TS -11.1550 64.2225 main 1214 1206 P_____________ SH092020 -11.1550 64.2225 TD 25 1004 -1 1006 195 30 8 136
2020019S11063 2020 4 SI MM NOT_NAMED 2020-01-20 00:00:00 TS -11.5000 64.5000 main 1206 1174 O_____________ jtwc_sh SH092020 -11.5000 64.5000 TD 25 1004 -1 1006 195 30 9 153
2020019S11063 2020 4 SI MM NOT_NAMED 2020-01-20 03:00:00 TS -11.9924 64.6651 main 1174 1138 P_____________ SH092020 -11.9924 64.6651 TD 27 1003 -1 1006 195 30 10 164
2020019S11063 2020 4 SI MM NOT_NAMED 2020-01-20 06:00:00 TS -12.5000 64.8000 main 1138 1119 O_____________ jtwc_sh SH092020 -12.5000 64.8000 TD 30 1002 -1 1006 195 30 9 160
2020019S11063 2020 4 SI MM NOT_NAMED 2020-01-20 09:00:00 TS -12.8725 64.9851 main 1119 1110 P_____________ SH092020 -12.8725 64.9851 TD 30 1002 -1 1006 190 30 8 151
2020019S11063 2020 4 SI MM NOT_NAMED 2020-01-20 12:00:00 TS -13.2000 65.2000 main 1110 1102 O_____________ jtwc_sh SH092020 -13.2000 65.2000 TD 30 1002 -1 1006 185 30 8 146
2020019S11063 2020 4 SI MM NOT_NAMED 2020-01-20 15:00:00 TS -13.5199 65.4277 main 1103 1095 P_____________ SH092020 -13.5199 65.4277 TD 30 1002 -1 1006 180 30 9 145
2020019S11063 2020 4 SI MM NOT_NAMED 2020-01-20 18:00:00 TS -13.9000 65.7000 main 1097 1085 O_____________ jtwc_sh SH092020 -13.9000 65.7000 TD 30 1003 -1 1007 175 30 11 146
2020019S11063 2020 4 SI MM NOT_NAMED 2020-01-20 21:00:00 TS -14.4126 66.0499 main 1087 1081 P_____________ SH092020 -14.4126 66.0499 TD 30 1002 -1 1006 175 30 13 148
2020019S11063 2020 4 SI MM NOT_NAMED 2020-01-21 00:00:00 TS -15.0000 66.4000 main 1084 1073 O_____________ jtwc_sh SH092020 -15.0000 66.4000 TD 30 1002 -1 1006 175 30 13 153
2020019S11063 2020 4 SI MM NOT_NAMED 2020-01-21 03:00:00 TS -15.5924 66.6652 main 1077 1060 P_____________ SH092020 -15.5924 66.6652 TD 32 1001 -1 1006 162 30 13 158
2020019S11063 2020 4 SI MM NOT_NAMED 2020-01-21 06:00:00 TS -16.2000 66.9000 main 1064 1054 O_____________ jtwc_sh SH092020 -16.2000 66.9000 TS 35 1001 0 70 50 60 1007 150 30 13 159
2020019S11063 2020 4 SI MM NOT_NAMED 2020-01-21 09:00:00 TS -16.8375 67.1574 main 1065 1054 P_____________ SH092020 -16.8375 67.1574 TS 35 1000 0 70 57 60 1006 150 30 13 158
2020019S11063 2020 4 SI MM NOT_NAMED 2020-01-21 12:00:00 TS -17.4000 67.4000 main 1060 1057 O_____________ jtwc_sh SH092020 -17.4000 67.4000 TS 35 999 0 70 65 60 1005 150 30 10 156
2020019S11063 2020 4 SI MM NOT_NAMED 2020-01-21 15:00:00 TS -17.7874 67.6003 main 1067 1063 P_____________ SH092020 -17.7874 67.6003 TS 32 1000 -1 1005 150 30 8 151
2020019S11063 2020 4 SI MM NOT_NAMED 2020-01-21 18:00:00 TS -18.1000 67.8000 main 1078 1075 O_____________ jtwc_sh SH092020 -18.1000 67.8000 TD 30 1002 -1 1005 150 30 8 148
2020019S11063 2020 4 SI MM NOT_NAMED 2020-01-21 21:00:00 TS -18.4424 68.0277 main 1090 1088 P_____________ SH092020 -18.4424 68.0277 TD 30 1001 -1 1005 150 30 8 146
2020019S11063 2020 4 SI MM NOT_NAMED 2020-01-22 00:00:00 TS -18.8000 68.3000 main 1112 1112 O_____________ jtwc_sh SH092020 -18.8000 68.3000 TD 30 1001 -1 1005 150 30 9 143
2020019S11063 2020 4 SI MM NOT_NAMED 2020-01-22 03:00:00 TS -19.1925 68.6350 main 1136 1136 P_____________ SH092020 -19.1925 68.6350 TD 32 1000 -1 1005 147 30 10 140
2020019S11063 2020 4 SI MM NOT_NAMED 2020-01-22 06:00:00 TS -19.6000 69.0000 main 1172 1172 O_____________ jtwc_sh SH092020 -19.6000 69.0000 TS 35 999 0 110 55 1005 145 30 11 140
2020019S11063 2020 4 SI MM NOT_NAMED 2020-01-22 09:00:00 TS -20.0075 69.3576 main 1211 1210 P_____________ SH092020 -20.0075 69.3576 TS 35 999 0 110 55 1005 135 30 10 141
2020019S11063 2020 4 SI MM NOT_NAMED 2020-01-22 12:00:00 TS -20.4000 69.7000 main 1240 1240 O_____________ jtwc_sh SH092020 -20.4000 69.7000 TS 35 1000 0 110 55 1005 125 30 10 140
2020019S11063 2020 4 SI MM NOT_NAMED 2020-01-22 15:00:00 TS -20.7466 70.0274 main 1270 1270 P_____________ SH092020 -20.7466 70.0274 TS 37 1000 0 80 42 1006 127 30 9 141
2020019S11063 2020 4 SI MM NOT_NAMED 2020-01-22 18:00:00 TS -21.1000 70.3000 main 1302 1302 O_____________ jtwc_sh SH092020 -21.1000 70.3000 TS 40 1000 0 50 30 1008 130 30 9 150
2020019S11063 2020 4 SI MM NOT_NAMED 2020-01-22 21:00:00 TS -21.5000 70.5000 main 1325 1325 O_____________ jtwc_sh SH092020 -21.5000 70.5000 TS 45 999 0 140 32 1008 130 30 10 153
2020019S11063 2020 4 SI MM NOT_NAMED 2020-01-23 00:00:00 TS -22.0000 70.8000 main 1360 1360 O_____________ jtwc_sh SH092020 -22.0000 70.8000 TS 45 998 0 45 35 1006 130 35 13 152
2020019S11063 2020 4 SI MM NOT_NAMED 2020-01-23 03:00:00 TS -22.6456 71.1600 main 1409 1409 P_____________ SH092020 -22.6456 71.1600 TS 40 998 0 72 45 1006 130 32 15 155
2020019S11063 2020 4 SI MM NOT_NAMED 2020-01-23 06:00:00 TS -23.4000 71.5000 main 1454 1454 O_____________ jtwc_sh SH092020 -23.4000 71.5000 TS 35 999 0 100 55 120 1006 130 30 16 161
2020019S11063 2020 4 SI MM NOT_NAMED 2020-01-23 09:00:00 TS -24.1849 71.7451 main 1494 1494 P_____________ SH092020 -24.1849 71.7451 TS 32 1000 -1 1006 145 35 16 167
2020019S11063 2020 4 SI MM NOT_NAMED 2020-01-23 12:00:00 TS -25.0000 71.9000 main 1537 1537 O_____________ jtwc_sh SH092020 -25.0000 71.9000 TD 30 1002 -1 1007 160 40 16 174
2020019S11063 2020 4 SI MM NOT_NAMED 2020-01-23 15:00:00 TS -25.7848 71.9291 main 1566 1566 P_____________ SH092020 -25.7848 71.9291 TD 27 1003 -1 1007 132 40 16 177
2020019S11063 2020 4 SI MM NOT_NAMED 2020-01-23 18:00:00 TS -26.6000 72.0000 main 1607 1607 O_____________ jtwc_sh SH092020 -26.6000 72.0000 TD 25 1005 -1 1008 105 40 18 170
2020019S11063 2020 4 SI MM NOT_NAMED 2020-01-23 21:00:00 TS -27.5149 72.2748 main 1674 1674 P_____________ SH092020 -27.5149 72.2748 TD 25 1004 -1 1008 105 40 19 161
2020019S11063 2020 4 SI MM NOT_NAMED 2020-01-24 00:00:00 TS -28.4000 72.7000 main 1753 1753 O_____________ jtwc_sh SH092020 -28.4000 72.7000 TD 25 1004 -1 1008 105 40 18 153
2020019S11063 2020 4 SI MM NOT_NAMED 2020-01-24 03:00:00 TS -29.1455 73.2239 main 1832 1832 P_____________ SH092020 -29.1455 73.2239 TD 25 1004 -1 1008 105 40 17 146
2020019S11063 2020 4 SI MM NOT_NAMED 2020-01-24 06:00:00 ET -29.8000 73.8000 main 1920 O_____________ jtwc_sh SH092020 -29.8000 73.8000 EX 25 1004 -4 1008 105 40 17 143

About IBTrACS Database

This database is a web-friendly format of International Best Track Archive for Climate Stewardship (IBTrACS), a global best track data archive curated by NOAA dating back to 1842.

Updated: 2022-08-18